Pagrindinis puslapis
METAR-TAF:

METAR-TAF

Oro uostai :

Cabo Frio, Rio de Janeiro, Brazilija

platuma: 22-55-15S, ilguma: 042-04-17W, Aukštis: 7 m

Dabartinis oras

Ataskaita buvo paskelbta 2 valandos ir 45 minutes, ne 21:00 UTC
Vėjas 4 kt iš Pietų
Temperatūra 25°C
Drėgmė 65%
Slėgis 1017 hPa
Matomumas 10 km arba daugiau
Išsisklaidę debesys ne aukštis 2500 ft
Su prošvaistėmis ne aukštis 7000 ft

METAR: SBCB 232100Z 19004KT 9999 SCT025 BKN070 25/18 Q1017

Laikas: 20:45 (23:45 UTC)

Prognozė

Ataskaita buvo paskelbta 3 valandos ir 1 minutes, ne 20:44 UTC
Prognozė galioja nuo 24 metu 00 UTC su 24 metu 24 UTC
Vėjas 5 kt iš Vakarų
Matomumas 10 km arba daugiau
Išsisklaidę debesys ne aukštis 3000 ft
Tapsmas
nuo 24 metu 09 UTC su 24 metu 11 UTC
Vėjas 5 kt iš Šiaurės Rytų
Tapsmas
nuo 24 metu 14 UTC su 24 metu 16 UTC
Vėjas 15 kt iš Rytų

TAF: SBCB 232044Z 2400/2424 28005KT 9999 SCT030 TN23/2409Z TX29/2416Z BECMG 2409/2411 05005KT BECMG 2414/2416 08015KT RMK PHI

Orai ataskaitas ir orų prognozės (METAR, TAF).

turimą stotys yra geltonos ir raudonos taškus žemėlapyje.

Perkelti pele per norėdami pamatyti stoties vardą.

Tada spustelėkite, norėdami matyti oro stebėjimo ir prognozės.

Norėdami pakeisti žemėlapį: spustelėkite ant žalios mygtukų su juodo kryžiaus žemyn,; žalią mygtuką su brūkšneliu, jei norite nutolinti; arba žalių rodyklių gretimoms žemėlapius.


METAR-TAF: